Time;durP1;ratioP1;P1;durP2;ratioP2;P2;SDS_P1;SDS_P2;PMS_P1;PMS_P2;Temp;Humidity;BMP_temperature;BMP_pressure;BME280_temperature;BME280_humidity;BME280_pressure;Samples;Min_cycle;Max_cycle;Signal;HPM_P1;HPM_P2
2021/03/17 00:01:38;;;;;;;11.95;6.97;;;;;;;;;;5054372;28;20013;-70
2021/03/17 00:04:04;;;;;;;13.57;7.30;;;;;;;;;;5054234;28;20037;-70
2021/03/17 00:06:30;;;;;;;13.43;7.15;;;;;;;;;;5053897;28;20120;-70
2021/03/17 00:08:57;;;;;;;14.20;7.32;;;;;;;;;;5053056;28;20025;-70
2021/03/17 00:11:23;;;;;;;13.05;7.03;;;;;;;;;;5054033;28;20377;-70
2021/03/17 00:13:49;;;;;;;12.10;6.97;;;;;;;;;;5053967;28;20090;-70
2021/03/17 00:16:15;;;;;;;14.65;7.45;;;;;;;;;;5054137;28;20032;-70
2021/03/17 00:18:41;;;;;;;13.23;6.97;;;;;;;;;;5052423;28;20048;-70
2021/03/17 00:21:07;;;;;;;14.55;7.72;;;;;;;;;;5053976;28;20031;-70
2021/03/17 00:23:33;;;;;;;13.57;7.70;;;;;;;;;;5053943;28;20079;-70
2021/03/17 00:26:00;;;;;;;12.43;6.50;;;;;;;;;;5052229;28;20113;-70
2021/03/17 00:28:26;;;;;;;8.63;5.13;;;;;;;;;;5053773;28;20501;-70
2021/03/17 00:30:52;;;;;;;8.70;5.13;;;;;;;;;;5054025;28;20036;-70
2021/03/17 00:33:18;;;;;;;10.70;5.10;;;;;;;;;;5053223;28;20096;-70
2021/03/17 00:35:44;;;;;;;10.80;5.55;;;;;;;;;;5052401;28;20021;-70
2021/03/17 00:38:11;;;;;;;15.95;5.43;;;;;;;;;;5053656;28;20474;-71
2021/03/17 00:40:37;;;;;;;10.68;4.90;;;;;;;;;;5053172;28;20047;-71
2021/03/17 00:43:04;;;;;;;10.80;5.40;;;;;;;;;;5053545;28;20043;-70
2021/03/17 00:45:30;;;;;;;14.27;5.85;;;;;;;;;;5053363;28;20021;-70
2021/03/17 00:47:56;;;;;;;8.25;5.10;;;;;;;;;;5053105;28;20435;-70
2021/03/17 00:50:23;;;;;;;9.38;5.18;;;;;;;;;;5053576;28;20090;-70
2021/03/17 00:52:49;;;;;;;8.25;5.28;;;;;;;;;;5053166;28;20544;-70
2021/03/17 00:55:15;;;;;;;8.73;5.35;;;;;;;;;;5052787;28;20025;-71
2021/03/17 00:57:41;;;;;;;8.55;5.07;;;;;;;;;;5053298;28;20028;-70
2021/03/17 01:00:12;;;;;;;8.55;4.90;;;;;;;;;;5053229;28;20498;-70
2021/03/17 01:02:38;;;;;;;10.40;5.38;;;;;;;;;;5052889;28;20021;-70
2021/03/17 01:05:05;;;;;;;9.57;5.40;;;;;;;;;;5052967;28;20029;-70
2021/03/17 01:07:31;;;;;;;8.25;4.80;;;;;;;;;;5051590;28;20071;-72
2021/03/17 01:09:57;;;;;;;8.15;4.60;;;;;;;;;;5053241;28;20048;-70
2021/03/17 01:12:24;;;;;;;13.38;5.75;;;;;;;;;;5053135;28;20024;-70
2021/03/17 01:14:50;;;;;;;7.80;5.05;;;;;;;;;;5052461;28;20091;-70
2021/03/17 01:17:16;;;;;;;8.23;4.82;;;;;;;;;;5052976;28;20013;-70
2021/03/17 01:19:42;;;;;;;7.93;4.90;;;;;;;;;;5052955;28;20048;-70
2021/03/17 01:22:09;;;;;;;9.18;4.90;;;;;;;;;;5052437;28;20390;-70
2021/03/17 01:24:35;;;;;;;7.45;4.75;;;;;;;;;;5052776;28;20032;-70
2021/03/17 01:27:02;;;;;;;11.82;4.82;;;;;;;;;;5052677;28;20119;-70
2021/03/17 01:29:28;;;;;;;10.85;4.40;;;;;;;;;;5052529;28;20071;-70
2021/03/17 01:31:54;;;;;;;10.30;5.03;;;;;;;;;;5052927;28;20079;-70
2021/03/17 01:34:20;;;;;;;10.50;4.63;;;;;;;;;;5052551;28;20056;-70
2021/03/17 01:36:46;;;;;;;7.55;4.32;;;;;;;;;;5052207;28;20428;-71
2021/03/17 01:39:13;;;;;;;7.45;4.15;;;;;;;;;;5051489;28;20056;-70
2021/03/17 01:41:39;;;;;;;8.50;4.35;;;;;;;;;;5052048;28;20021;-71
2021/03/17 01:44:05;;;;;;;8.88;4.72;;;;;;;;;;5052083;28;20049;-70
2021/03/17 01:46:31;;;;;;;9.48;4.30;;;;;;;;;;5052759;28;20049;-70
2021/03/17 01:48:58;;;;;;;7.35;3.95;;;;;;;;;;5052615;28;20055;-70
2021/03/17 01:51:24;;;;;;;7.82;3.67;;;;;;;;;;5052248;28;20052;-70
2021/03/17 01:53:50;;;;;;;12.00;3.83;;;;;;;;;;5052209;28;20516;-70
2021/03/17 01:56:17;;;;;;;8.95;4.88;;;;;;;;;;5052381;28;20036;-70
2021/03/17 01:58:43;;;;;;;9.60;4.60;;;;;;;;;;5051905;28;20416;-70
2021/03/17 02:01:09;;;;;;;7.82;4.25;;;;;;;;;;5052189;28;20114;-70
2021/03/17 02:03:36;;;;;;;6.55;3.83;;;;;;;;;;5052273;28;20056;-70
2021/03/17 02:06:02;;;;;;;6.70;4.05;;;;;;;;;;5051762;28;20492;-70
2021/03/17 02:08:28;;;;;;;10.13;3.97;;;;;;;;;;5052219;28;20099;-70
2021/03/17 02:10:54;;;;;;;8.48;4.18;;;;;;;;;;5051963;28;20478;-70
2021/03/17 02:13:39;;;;;;;6.88;3.78;;;;;;;;;;5052239;28;20029;-70
2021/03/17 02:16:11;;;;;;;10.30;4.30;;;;;;;;;;5050817;28;20024;-71
2021/03/17 02:18:54;;;;;;;8.68;4.38;;;;;;;;;;5051768;28;20382;-70
2021/03/17 02:21:39;;;;;;;7.70;4.30;;;;;;;;;;5052197;28;20092;-70
2021/03/17 02:24:28;;;;;;;10.18;4.82;;;;;;;;;;5052118;28;20067;-70
2021/03/17 02:27:12;;;;;;;6.95;3.72;;;;;;;;;;5051662;28;20053;-70
2021/03/17 02:29:54;;;;;;;5.95;3.60;;;;;;;;;;5051972;28;20087;-70
2021/03/17 02:32:49;;;;;;;7.43;4.20;;;;;;;;;;5051800;28;20024;-70
2021/03/17 02:35:18;;;;;;;7.25;4.18;;;;;;;;;;5052011;28;20065;-70
2021/03/17 02:37:46;;;;;;;7.45;4.28;;;;;;;;;;5051842;28;20355;-70
2021/03/17 02:40:16;;;;;;;10.98;3.97;;;;;;;;;;5051476;28;20017;-71
2021/03/17 02:43:08;;;;;;;9.93;4.30;;;;;;;;;;5051805;28;20029;-70
2021/03/17 02:45:35;;;;;;;7.53;3.40;;;;;;;;;;5050728;28;20069;-70
2021/03/17 02:48:02;;;;;;;14.15;4.28;;;;;;;;;;5050029;28;20469;-70
2021/03/17 02:50:28;;;;;;;9.15;4.13;;;;;;;;;;5051862;28;20132;-69
2021/03/17 02:52:55;;;;;;;10.68;4.20;;;;;;;;;;5052439;28;20052;-70
2021/03/17 02:55:24;;;;;;;10.18;3.70;;;;;;;;;;5055118;28;20489;-71
2021/03/17 02:57:52;;;;;;;10.05;4.22;;;;;;;;;;5055460;28;20025;-70
2021/03/17 03:00:19;;;;;;;6.68;3.13;;;;;;;;;;5055058;28;20029;-71
2021/03/17 03:02:49;;;;;;;15.93;4.60;;;;;;;;;;5055533;28;20439;-70
2021/03/17 03:05:15;;;;;;;8.25;3.33;;;;;;;;;;5055404;28;20108;-70
2021/03/17 03:07:42;;;;;;;8.85;3.88;;;;;;;;;;5053741;28;20103;-70
2021/03/17 03:10:09;;;;;;;7.57;3.88;;;;;;;;;;5055264;28;20036;-70
2021/03/17 03:12:36;;;;;;;11.43;4.72;;;;;;;;;;5054185;28;20021;-70
2021/03/17 03:15:04;;;;;;;7.43;4.25;;;;;;;;;;5054985;28;20514;-70
2021/03/17 03:17:31;;;;;;;7.70;3.72;;;;;;;;;;5055247;28;20021;-70
2021/03/17 03:19:58;;;;;;;6.10;3.40;;;;;;;;;;5055039;28;20029;-70
2021/03/17 03:22:25;;;;;;;8.30;3.20;;;;;;;;;;5054777;28;20049;-70
2021/03/17 03:24:52;;;;;;;6.20;3.33;;;;;;;;;;5055028;28;20029;-70
2021/03/17 03:27:18;;;;;;;5.80;3.28;;;;;;;;;;5055037;28;20025;-70
2021/03/17 03:29:45;;;;;;;5.97;3.30;;;;;;;;;;5054545;28;20025;-70
2021/03/17 03:32:11;;;;;;;10.98;4.03;;;;;;;;;;5055011;28;20021;-70
2021/03/17 03:34:38;;;;;;;9.48;4.20;;;;;;;;;;5055027;28;20036;-70
2021/03/17 03:37:04;;;;;;;7.82;2.88;;;;;;;;;;5054404;28;20377;-70
2021/03/17 03:39:30;;;;;;;12.98;3.83;;;;;;;;;;5054709;28;20029;-70
2021/03/17 03:41:56;;;;;;;9.63;3.92;;;;;;;;;;5054697;28;20354;-70
2021/03/17 03:44:23;;;;;;;9.43;3.78;;;;;;;;;;5054407;28;20382;-70
2021/03/17 03:46:49;;;;;;;7.97;3.72;;;;;;;;;;5053316;28;20025;-70
2021/03/17 03:49:15;;;;;;;10.75;3.85;;;;;;;;;;5054537;28;20025;-70
2021/03/17 03:51:44;;;;;;;7.63;4.10;;;;;;;;;;5053307;28;20380;-69
2021/03/17 03:54:22;;;;;;;9.90;3.38;;;;;;;;;;5054408;28;20451;-70
2021/03/17 03:57:00;;;;;;;11.77;3.38;;;;;;;;;;5052904;28;20029;-70
2021/03/17 03:59:29;;;;;;;9.40;3.67;;;;;;;;;;5054446;28;20044;-70
2021/03/17 04:01:59;;;;;;;8.80;3.80;;;;;;;;;;5054606;28;20020;-70
2021/03/17 04:04:29;;;;;;;7.57;3.92;;;;;;;;;;5053400;28;20583;-69
2021/03/17 04:06:56;;;;;;;12.98;3.78;;;;;;;;;;5054248;28;20100;-69
2021/03/17 04:09:26;;;;;;;10.02;4.22;;;;;;;;;;5054217;28;20033;-69
2021/03/17 04:11:55;;;;;;;8.98;3.83;;;;;;;;;;5054022;28;20537;-69
2021/03/17 04:14:22;;;;;;;7.40;3.63;;;;;;;;;;5054110;28;20033;-69
2021/03/17 04:16:50;;;;;;;11.65;4.53;;;;;;;;;;5054071;28;20385;-70
2021/03/17 04:19:17;;;;;;;8.00;3.85;;;;;;;;;;5053755;28;20029;-69
2021/03/17 04:21:44;;;;;;;9.48;4.05;;;;;;;;;;5053945;28;20522;-69
2021/03/17 04:24:10;;;;;;;8.05;3.33;;;;;;;;;;5054033;28;20029;-69
2021/03/17 04:26:37;;;;;;;9.02;4.40;;;;;;;;;;5053621;28;20024;-70
2021/03/17 04:29:04;;;;;;;8.05;3.35;;;;;;;;;;5053866;28;20026;-70
2021/03/17 04:31:30;;;;;;;11.93;3.63;;;;;;;;;;5053668;28;20355;-70
2021/03/17 04:33:57;;;;;;;13.68;4.35;;;;;;;;;;5053886;28;20537;-70
2021/03/17 04:36:24;;;;;;;8.70;4.13;;;;;;;;;;5053789;28;20032;-70
2021/03/17 04:38:50;;;;;;;11.75;4.32;;;;;;;;;;5053293;28;20039;-70
2021/03/17 04:41:17;;;;;;;13.20;5.07;;;;;;;;;;5052337;28;20473;-70
2021/03/17 04:43:43;;;;;;;7.30;3.50;;;;;;;;;;5053578;28;20391;-70
2021/03/17 04:46:11;;;;;;;6.10;3.58;;;;;;;;;;5053174;28;20084;-70
2021/03/17 04:48:42;;;;;;;7.38;3.17;;;;;;;;;;5053563;28;20385;-70
2021/03/17 04:51:09;;;;;;;12.52;3.95;;;;;;;;;;5053664;28;20025;-70
2021/03/17 04:53:35;;;;;;;9.07;4.22;;;;;;;;;;5052820;28;20045;-70
2021/03/17 04:56:06;;;;;;;7.00;3.78;;;;;;;;;;5052026;28;20473;-70
2021/03/17 04:58:33;;;;;;;8.80;4.05;;;;;;;;;;5053279;28;20052;-70
2021/03/17 05:01:00;;;;;;;6.95;3.70;;;;;;;;;;5052815;28;20033;-70
2021/03/17 05:03:26;;;;;;;6.03;3.47;;;;;;;;;;5053198;28;20051;-70
2021/03/17 05:05:54;;;;;;;9.43;3.80;;;;;;;;;;5053156;28;20021;-70
2021/03/17 05:08:22;;;;;;;9.68;3.40;;;;;;;;;;5052708;28;20021;-70
2021/03/17 05:10:48;;;;;;;6.28;3.70;;;;;;;;;;5053123;28;20025;-70
2021/03/17 05:13:15;;;;;;;6.95;3.40;;;;;;;;;;5053258;28;20437;-70
2021/03/17 05:15:43;;;;;;;6.07;3.22;;;;;;;;;;5050374;28;20064;-69
2021/03/17 05:18:11;;;;;;;6.45;3.40;;;;;;;;;;5052955;28;20508;-71
2021/03/17 05:20:37;;;;;;;6.40;3.15;;;;;;;;;;5052969;28;20244;-69
2021/03/17 05:23:04;;;;;;;6.78;3.72;;;;;;;;;;5052333;28;20386;-69
2021/03/17 05:25:32;;;;;;;9.07;3.90;;;;;;;;;;5052790;28;20056;-69
2021/03/17 05:28:07;;;;;;;7.90;4.22;;;;;;;;;;5052351;28;20098;-75
2021/03/17 05:30:34;;;;;;;8.25;4.85;;;;;;;;;;5051607;28;20028;-71
2021/03/17 05:33:01;;;;;;;11.50;5.68;;;;;;;;;;5052954;28;20051;-71
2021/03/17 05:35:28;;;;;;;9.75;5.00;;;;;;;;;;5050930;28;20033;-71
2021/03/17 05:37:54;;;;;;;12.15;6.57;;;;;;;;;;5052628;28;20021;-70
2021/03/17 05:40:21;;;;;;;9.98;5.72;;;;;;;;;;5052566;28;20474;-70
2021/03/17 05:42:47;;;;;;;8.25;4.40;;;;;;;;;;5052144;28;20103;-71
2021/03/17 05:45:14;;;;;;;12.73;5.32;;;;;;;;;;5052504;28;20023;-71
2021/03/17 05:47:44;;;;;;;9.63;4.38;;;;;;;;;;5052505;28;20031;-72
2021/03/17 05:50:12;;;;;;;6.88;4.25;;;;;;;;;;5052198;28;20382;-71
2021/03/17 05:52:40;;;;;;;8.02;4.18;;;;;;;;;;5052366;28;20048;-70
2021/03/17 05:55:07;;;;;;;11.18;5.95;;;;;;;;;;5052389;28;20069;-70
2021/03/17 05:57:34;;;;;;;9.98;5.05;;;;;;;;;;5052012;28;20028;-72
2021/03/17 06:00:00;;;;;;;12.95;5.68;;;;;;;;;;5052285;28;20104;-71
2021/03/17 06:02:26;;;;;;;8.43;4.75;;;;;;;;;;5052316;28;20027;-71
2021/03/17 06:04:53;;;;;;;11.70;5.00;;;;;;;;;;5051945;28;20429;-72
2021/03/17 06:07:24;;;;;;;9.93;5.68;;;;;;;;;;5051360;28;20082;-71
2021/03/17 06:09:52;;;;;;;30.92;12.52;;;;;;;;;;5051026;28;20021;-72
2021/03/17 06:12:21;;;;;;;19.63;9.30;;;;;;;;;;5051855;28;20219;-71
2021/03/17 06:14:48;;;;;;;18.02;10.02;;;;;;;;;;5052100;28;20040;-71
2021/03/17 06:17:18;;;;;;;13.70;7.75;;;;;;;;;;5051803;28;20021;-71
2021/03/17 06:19:47;;;;;;;12.38;7.03;;;;;;;;;;5052090;28;20539;-71
2021/03/17 06:22:14;;;;;;;11.57;6.47;;;;;;;;;;5046348;28;20040;-70
2021/03/17 06:24:40;;;;;;;9.38;4.80;;;;;;;;;;5049709;28;20037;-71
2021/03/17 06:27:08;;;;;;;10.88;5.88;;;;;;;;;;5053748;28;20029;-70
2021/03/17 06:29:34;;;;;;;8.90;5.25;;;;;;;;;;5055809;28;20032;-72
2021/03/17 06:32:01;;;;;;;15.13;7.80;;;;;;;;;;5054249;28;20021;-71
2021/03/17 06:34:27;;;;;;;15.52;7.88;;;;;;;;;;5053792;28;20119;-69
2021/03/17 06:36:57;;;;;;;13.48;6.70;;;;;;;;;;5053348;28;20021;-69
2021/03/17 06:39:23;;;;;;;10.20;6.03;;;;;;;;;;5052188;28;20025;-67
2021/03/17 06:41:54;;;;;;;14.18;7.00;;;;;;;;;;5053563;28;20033;-68
2021/03/17 06:44:28;;;;;;;15.65;7.70;;;;;;;;;;5051194;28;20036;-69
2021/03/17 06:47:13;;;;;;;12.35;8.40;;;;;;;;;;5054131;28;20086;-68
2021/03/17 06:49:43;;;;;;;10.77;6.38;;;;;;;;;;5043270;28;20090;-68
2021/03/17 06:52:27;;;;;;;13.43;7.22;;;;;;;;;;5054977;28;20385;-69
2021/03/17 06:55:04;;;;;;;10.85;6.22;;;;;;;;;;5054509;28;20389;-71
2021/03/17 06:57:30;;;;;;;8.35;5.18;;;;;;;;;;5053726;28;20024;-70
2021/03/17 07:00:16;;;;;;;13.65;6.40;;;;;;;;;;5054787;28;20028;-70
2021/03/17 07:02:49;;;;;;;10.07;5.70;;;;;;;;;;5054541;28;20032;-70
2021/03/17 07:05:15;;;;;;;11.05;5.38;;;;;;;;;;5055146;28;20024;-68
2021/03/17 07:07:48;;;;;;;8.07;4.97;;;;;;;;;;5054345;28;20021;-69
2021/03/17 07:10:17;;;;;;;10.45;5.82;;;;;;;;;;5051248;28;20029;-71
2021/03/17 07:12:43;;;;;;;10.20;6.30;;;;;;;;;;5052936;28;20103;-70
2021/03/17 07:15:10;;;;;;;10.63;6.03;;;;;;;;;;5053792;28;20493;-69
2021/03/17 07:17:36;;;;;;;11.40;6.72;;;;;;;;;;5051319;28;20025;-71
2021/03/17 07:20:05;;;;;;;9.90;6.03;;;;;;;;;;5044704;28;20099;-71
2021/03/17 07:22:32;;;;;;;9.88;5.07;;;;;;;;;;5047773;28;20483;-71
2021/03/17 07:25:02;;;;;;;12.88;7.25;;;;;;;;;;5051704;28;20021;-71
2021/03/17 07:27:30;;;;;;;13.65;9.18;;;;;;;;;;5052034;28;20397;-71
2021/03/17 07:29:59;;;;;;;14.52;6.50;;;;;;;;;;5052721;28;20040;-73
2021/03/17 07:32:25;;;;;;;10.02;5.15;;;;;;;;;;5053822;28;20025;-73
2021/03/17 07:34:51;;;;;;;19.05;6.95;;;;;;;;;;5053808;28;20041;-71
2021/03/17 07:37:18;;;;;;;13.55;6.40;;;;;;;;;;5049412;28;20021;-72
2021/03/17 07:39:44;;;;;;;15.98;7.68;;;;;;;;;;5048438;28;20846;-72
2021/03/17 07:42:11;;;;;;;16.98;8.43;;;;;;;;;;5053484;28;20481;-72
2021/03/17 07:44:42;;;;;;;12.43;7.22;;;;;;;;;;5053753;28;20025;-71
2021/03/17 07:47:09;;;;;;;16.85;8.88;;;;;;;;;;5052974;28;20468;-73
2021/03/17 07:49:36;;;;;;;11.02;7.60;;;;;;;;;;5053274;28;20033;-73
2021/03/17 07:52:03;;;;;;;12.90;6.57;;;;;;;;;;5053359;28;20025;-71
2021/03/17 07:54:30;;;;;;;13.85;6.57;;;;;;;;;;5052220;28;20049;-73
2021/03/17 07:56:58;;;;;;;11.98;6.32;;;;;;;;;;5052692;28;20017;-72
2021/03/17 07:59:25;;;;;;;17.33;10.05;;;;;;;;;;5053132;28;20025;-71
2021/03/17 08:01:53;;;;;;;18.70;10.13;;;;;;;;;;5053792;28;20047;-70
2021/03/17 08:04:22;;;;;;;12.40;6.50;;;;;;;;;;5053386;28;20025;-72
2021/03/17 08:06:48;;;;;;;15.52;6.88;;;;;;;;;;5053612;28;20059;-72
2021/03/17 08:09:14;;;;;;;14.30;7.70;;;;;;;;;;5052317;28;20021;-72
2021/03/17 08:11:41;;;;;;;16.38;8.73;;;;;;;;;;5052346;28;20470;-71
2021/03/17 08:14:08;;;;;;;16.83;8.75;;;;;;;;;;5053680;28;20040;-74
2021/03/17 08:16:37;;;;;;;17.13;7.68;;;;;;;;;;5049560;28;20469;-71
2021/03/17 08:19:21;;;;;;;20.35;10.13;;;;;;;;;;5046212;28;20082;-72
2021/03/17 08:21:52;;;;;;;23.00;10.07;;;;;;;;;;5046892;28;20025;-71
2021/03/17 08:24:30;;;;;;;13.43;6.75;;;;;;;;;;5052891;28;20100;-68
2021/03/17 08:26:57;;;;;;;14.75;6.85;;;;;;;;;;5053375;28;20088;-71
2021/03/17 08:29:24;;;;;;;18.67;7.13;;;;;;;;;;5053215;28;20036;-68
2021/03/17 08:31:52;;;;;;;17.05;8.07;;;;;;;;;;5052679;28;20359;-71
2021/03/17 08:34:21;;;;;;;14.38;6.22;;;;;;;;;;5051682;28;20071;-69
2021/03/17 08:36:48;;;;;;;13.07;6.30;;;;;;;;;;5051862;28;20051;-70
2021/03/17 08:39:32;;;;;;;14.27;6.10;;;;;;;;;;5052158;28;20098;-69
2021/03/17 08:42:02;;;;;;;10.80;5.70;;;;;;;;;;5051198;28;20025;-70
2021/03/17 08:44:29;;;;;;;14.30;6.60;;;;;;;;;;5051411;28;20025;-71
2021/03/17 08:47:12;;;;;;;13.07;6.53;;;;;;;;;;5051372;28;20017;-71
2021/03/17 08:49:38;;;;;;;10.30;5.50;;;;;;;;;;5051831;28;20093;-71
2021/03/17 08:52:05;;;;;;;16.00;6.78;;;;;;;;;;5051413;28;20025;-71
2021/03/17 08:54:31;;;;;;;13.82;6.85;;;;;;;;;;5050780;28;20594;-73
2021/03/17 08:56:58;;;;;;;14.63;7.97;;;;;;;;;;5052052;28;20035;-69
2021/03/17 08:59:38;;;;;;;22.23;9.30;;;;;;;;;;5052421;28;20021;-70
2021/03/17 09:02:05;;;;;;;16.48;8.48;;;;;;;;;;5052854;28;20029;-69
2021/03/17 09:04:44;;;;;;;16.13;8.70;;;;;;;;;;5050789;28;20021;-71
2021/03/17 09:07:11;;;;;;;15.02;7.63;;;;;;;;;;5049673;28;20041;-70
2021/03/17 09:09:53;;;;;;;9.23;5.43;;;;;;;;;;5052487;28;20393;-69
2021/03/17 09:12:39;;;;;;;12.30;6.57;;;;;;;;;;5051111;28;20028;-69
2021/03/17 09:15:14;;;;;;;14.57;8.73;;;;;;;;;;5051473;28;20548;-70
2021/03/17 09:17:44;;;;;;;13.52;6.65;;;;;;;;;;5051712;28;20048;-68
2021/03/17 09:20:13;;;;;;;9.30;4.97;;;;;;;;;;5050192;28;20813;-70
2021/03/17 09:22:44;;;;;;;13.68;4.88;;;;;;;;;;5050958;28;20035;-69
2021/03/17 09:25:16;;;;;;;12.63;6.35;;;;;;;;;;5049300;28;20021;-73
2021/03/17 09:27:45;;;;;;;11.55;5.10;;;;;;;;;;5051565;28;20017;-74
2021/03/17 09:30:12;;;;;;;13.35;5.15;;;;;;;;;;5050950;28;20037;-70
2021/03/17 09:32:39;;;;;;;12.10;5.30;;;;;;;;;;5051278;28;20021;-76
2021/03/17 09:35:06;;;;;;;14.93;6.72;;;;;;;;;;5050643;28;20041;-73
2021/03/17 09:37:32;;;;;;;13.90;5.75;;;;;;;;;;5050243;28;20495;-70
2021/03/17 09:39:59;;;;;;;13.55;6.93;;;;;;;;;;5051500;28;20187;-77
2021/03/17 09:42:25;;;;;;;11.73;5.75;;;;;;;;;;5051242;28;20021;-74
2021/03/17 09:44:58;;;;;;;14.98;8.50;;;;;;;;;;5051184;28;20111;-78
2021/03/17 09:47:31;;;;;;;9.90;5.65;;;;;;;;;;5051678;28;20024;-76
2021/03/17 09:49:57;;;;;;;11.18;6.25;;;;;;;;;;5051511;28;20489;-78
2021/03/17 09:52:24;;;;;;;12.38;6.60;;;;;;;;;;5051910;28;20124;-73
2021/03/17 09:54:50;;;;;;;15.40;7.80;;;;;;;;;;5052227;28;20040;-72
2021/03/17 09:57:17;;;;;;;10.23;5.55;;;;;;;;;;5051749;28;20013;-78
2021/03/17 09:59:44;;;;;;;14.98;8.60;;;;;;;;;;5052106;28;20355;-74
2021/03/17 10:02:14;;;;;;;12.75;6.10;;;;;;;;;;5049752;28;20017;-77
2021/03/17 10:04:45;;;;;;;10.15;4.28;;;;;;;;;;5050307;28;20393;-78
2021/03/17 10:07:12;;;;;;;12.80;7.07;;;;;;;;;;5051374;28;20070;-75
2021/03/17 10:09:39;;;;;;;10.80;4.88;;;;;;;;;;5051193;28;20045;-75
2021/03/17 10:12:07;;;;;;;11.27;6.15;;;;;;;;;;5051590;28;20035;-75
2021/03/17 10:14:34;;;;;;;12.00;6.00;;;;;;;;;;5051589;28;20067;-76
2021/03/17 10:17:02;;;;;;;12.85;6.40;;;;;;;;;;5051179;28;20041;-75
2021/03/17 10:19:28;;;;;;;12.00;6.10;;;;;;;;;;5048634;28;20627;-76
2021/03/17 10:21:55;;;;;;;12.32;5.65;;;;;;;;;;5049050;28;20029;-76
2021/03/17 10:24:38;;;;;;;13.38;7.25;;;;;;;;;;5050299;28;20029;-77
2021/03/17 10:27:09;;;;;;;23.75;10.73;;;;;;;;;;5050704;28;20071;-74
2021/03/17 10:29:35;;;;;;;20.13;10.48;;;;;;;;;;5050348;28;20049;-72
2021/03/17 10:32:03;;;;;;;14.80;7.70;;;;;;;;;;5050092;28;20377;-76
2021/03/17 10:34:30;;;;;;;51.60;24.20;;;;;;;;;;5050034;28;20072;-75
2021/03/17 10:36:56;;;;;;;16.92;6.72;;;;;;;;;;5050918;28;20508;-74
2021/03/17 10:39:27;;;;;;;19.08;7.68;;;;;;;;;;5050815;28;20017;-73
2021/03/17 10:41:53;;;;;;;41.90;16.65;;;;;;;;;;5050823;28;20544;-73
2021/03/17 10:44:21;;;;;;;15.30;9.30;;;;;;;;;;5049889;28;20086;-77
2021/03/17 10:47:05;;;;;;;18.73;9.82;;;;;;;;;;5050100;28;20527;-72
2021/03/17 10:49:31;;;;;;;;;;;;;;;;;;5049891;28;20087;-71
2021/03/17 10:51:58;;;;;;;9.95;6.22;;;;;;;;;;5050536;28;19905;-74
2021/03/17 10:54:32;;;;;;;13.93;7.82;;;;;;;;;;5051364;28;20025;-71
2021/03/17 10:56:59;;;;;;;14.45;9.27;;;;;;;;;;5050139;28;20021;-73
2021/03/17 10:59:35;;;;;;;14.48;8.05;;;;;;;;;;5048083;28;20064;-73
2021/03/17 11:02:20;;;;;;;21.50;8.75;;;;;;;;;;5047731;28;20016;-74
2021/03/17 11:05:05;;;;;;;12.60;7.75;;;;;;;;;;5048343;28;20020;-77
2021/03/17 11:07:50;;;;;;;13.10;6.22;;;;;;;;;;5049511;28;20496;-74
2021/03/17 11:10:35;;;;;;;19.35;8.80;;;;;;;;;;5050623;28;20021;-74
2021/03/17 11:13:10;;;;;;;18.73;9.25;;;;;;;;;;5051479;28;20481;-72
2021/03/17 11:15:41;;;;;;;11.95;5.60;;;;;;;;;;5053592;28;20047;-72
2021/03/17 11:18:08;;;;;;;11.32;5.50;;;;;;;;;;5053878;28;20052;-71
2021/03/17 11:20:41;;;;;;;20.25;7.85;;;;;;;;;;5051921;28;20040;-71
2021/03/17 11:23:26;;;;;;;13.63;6.82;;;;;;;;;;5053135;28;20021;-71
2021/03/17 11:25:54;;;;;;;15.48;8.63;;;;;;;;;;5052619;28;20052;-72
2021/03/17 11:28:21;;;;;;;22.48;11.95;;;;;;;;;;5053549;28;20089;-72
2021/03/17 11:30:52;;;;;;;20.88;10.65;;;;;;;;;;5053463;28;20187;-73
2021/03/17 11:33:20;;;;;;;17.15;8.13;;;;;;;;;;5054080;28;20412;-73
2021/03/17 11:35:47;;;;;;;11.70;5.10;;;;;;;;;;5053901;28;20036;-74
2021/03/17 11:38:13;;;;;;;14.02;6.70;;;;;;;;;;5054408;28;20028;-74
2021/03/17 11:40:40;;;;;;;17.52;9.82;;;;;;;;;;5053653;28;20032;-73
2021/03/17 11:43:07;;;;;;;19.20;9.13;;;;;;;;;;5054013;28;20032;-70
2021/03/17 11:45:33;;;;;;;19.13;7.82;;;;;;;;;;5054023;28;20052;-71
2021/03/17 11:48:00;;;;;;;21.42;10.93;;;;;;;;;;5053650;28;20033;-72
2021/03/17 11:50:26;;;;;;;17.48;9.18;;;;;;;;;;5053830;28;20025;-72
2021/03/17 11:52:52;;;;;;;21.08;11.85;;;;;;;;;;5053697;28;20505;-71
2021/03/17 11:55:19;;;;;;;16.83;9.10;;;;;;;;;;5053360;28;20032;-70
2021/03/17 11:57:45;;;;;;;16.13;8.40;;;;;;;;;;5052421;28;20017;-74
2021/03/17 12:00:12;;;;;;;10.98;5.53;;;;;;;;;;5053294;28;20035;-69
2021/03/17 12:02:38;;;;;;;12.50;6.78;;;;;;;;;;5052933;28;20063;-72
2021/03/17 12:05:05;;;;;;;16.73;7.82;;;;;;;;;;5053526;28;20489;-73
2021/03/17 12:07:32;;;;;;;14.13;8.30;;;;;;;;;;5053833;28;20029;-73
2021/03/17 12:09:58;;;;;;;15.13;6.78;;;;;;;;;;5053693;28;20048;-73
2021/03/17 12:12:24;;;;;;;14.32;7.95;;;;;;;;;;5052453;28;20386;-73
2021/03/17 12:14:51;;;;;;;15.02;7.95;;;;;;;;;;5052450;28;20436;-72
2021/03/17 12:17:17;;;;;;;9.40;5.82;;;;;;;;;;5053618;28;20033;-73
2021/03/17 12:19:44;;;;;;;15.48;7.85;;;;;;;;;;5052218;28;20370;-73
2021/03/17 12:22:10;;;;;;;14.00;7.85;;;;;;;;;;5053662;28;20033;-77
2021/03/17 12:24:36;;;;;;;9.50;5.78;;;;;;;;;;5051802;28;20096;-74
2021/03/17 12:27:02;;;;;;;24.92;10.85;;;;;;;;;;5053024;28;20054;-73
2021/03/17 12:32:06;;;;;;;18.77;7.90;;;;;;;;;;5069139;28;20728;-71
2021/03/17 12:34:33;;;;;;;23.73;13.90;;;;;;;;;;5069816;28;20475;-73
2021/03/17 12:36:59;;;;;;;22.02;10.70;;;;;;;;;;5068088;28;20029;-72
2021/03/17 12:43:20;;;;;;;14.40;8.50;;;;;;;;;;5069506;28;20380;-76
2021/03/17 12:45:47;;;;;;;14.05;8.30;;;;;;;;;;5068219;28;20029;-74
2021/03/17 12:48:14;;;;;;;10.57;5.95;;;;;;;;;;5069292;28;20023;-74
2021/03/17 12:50:40;;;;;;;17.30;8.30;;;;;;;;;;5069422;28;20021;-73
2021/03/17 12:53:32;;;;;;;16.23;8.32;;;;;;;;;;5110035;27;20310;-74
2021/03/17 12:55:58;;;;;;;13.85;7.82;;;;;;;;;;5110335;28;20043;-73
2021/03/17 12:58:25;;;;;;;16.00;8.32;;;;;;;;;;5110140;28;20012;-74
2021/03/17 13:00:51;;;;;;;19.83;10.25;;;;;;;;;;5109859;28;20426;-71
2021/03/17 13:03:17;;;;;;;14.30;7.20;;;;;;;;;;5109972;28;20034;-70
2021/03/17 13:05:43;;;;;;;11.95;6.50;;;;;;;;;;5109550;28;20164;-70
2021/03/17 13:10:54;;;;;;;11.13;6.63;;;;;;;;;;5128919;27;20171;-71
2021/03/17 13:13:21;;;;;;;11.27;6.60;;;;;;;;;;5106972;28;20027;-71
2021/03/17 13:16:18;;;;;;;10.82;5.38;;;;;;;;;;5068734;28;20379;-71
2021/03/17 13:18:45;;;;;;;10.68;6.22;;;;;;;;;;5066243;28;20039;-71
2021/03/17 13:21:13;;;;;;;10.27;5.72;;;;;;;;;;5065667;28;20424;-71
2021/03/17 13:23:39;;;;;;;13.25;8.00;;;;;;;;;;5067395;28;20028;-70
2021/03/17 13:26:05;;;;;;;14.57;6.28;;;;;;;;;;5066797;28;20035;-71
2021/03/17 13:29:46;;;;;;;16.65;7.38;;;;;;;;;;5107978;27;20441;-71
2021/03/17 13:33:26;;;;;;;12.45;7.00;;;;;;;;;;5066994;27;20923;-71
2021/03/17 13:35:52;;;;;;;17.20;8.10;;;;;;;;;;5068535;28;20028;-70
2021/03/17 13:38:19;;;;;;;13.30;7.40;;;;;;;;;;5068931;28;20031;-70
2021/03/17 13:40:45;;;;;;;11.52;6.03;;;;;;;;;;5068563;28;20021;-70
2021/03/17 13:43:11;;;;;;;11.65;6.93;;;;;;;;;;5069393;28;20473;-69
2021/03/17 13:45:38;;;;;;;11.52;6.80;;;;;;;;;;5069277;28;20108;-69
2021/03/17 13:48:04;;;;;;;15.95;9.25;;;;;;;;;;5069085;28;20419;-69
2021/03/17 13:50:31;;;;;;;17.25;9.10;;;;;;;;;;5069307;28;20468;-70
2021/03/17 13:52:57;;;;;;;16.85;8.35;;;;;;;;;;5069346;28;20033;-70
2021/03/17 13:55:24;;;;;;;21.50;12.40;;;;;;;;;;5069021;28;20009;-70
2021/03/17 13:57:51;;;;;;;17.05;6.88;;;;;;;;;;5069460;28;20036;-70
2021/03/17 14:00:18;;;;;;;17.15;9.38;;;;;;;;;;5069201;28;20491;-71
2021/03/17 14:02:45;;;;;;;13.10;6.93;;;;;;;;;;5067510;28;20060;-70
2021/03/17 14:05:12;;;;;;;17.70;10.20;;;;;;;;;;5069174;28;20017;-70
2021/03/17 14:07:38;;;;;;;19.67;10.18;;;;;;;;;;5069114;28;20077;-70
2021/03/17 14:10:08;;;;;;;29.35;13.82;;;;;;;;;;5067333;28;20094;-71
2021/03/17 14:12:34;;;;;;;21.52;10.65;;;;;;;;;;5068804;28;20447;-72
2021/03/17 14:15:00;;;;;;;20.48;13.40;;;;;;;;;;5069031;28;20023;-71
2021/03/17 14:17:27;;;;;;;15.20;9.27;;;;;;;;;;5068651;28;20115;-69
2021/03/17 14:19:53;;;;;;;16.85;8.93;;;;;;;;;;5068959;28;20505;-71
2021/03/17 14:22:19;;;;;;;28.15;11.95;;;;;;;;;;5068590;28;20107;-70
2021/03/17 14:24:45;;;;;;;20.25;10.25;;;;;;;;;;5068701;28;20066;-71
2021/03/17 14:27:12;;;;;;;18.58;8.05;;;;;;;;;;5067385;28;20572;-72
2021/03/17 14:29:38;;;;;;;23.38;10.23;;;;;;;;;;5067972;28;20500;-70
2021/03/17 14:32:05;;;;;;;26.10;10.75;;;;;;;;;;5068325;28;20099;-70
2021/03/17 14:34:31;;;;;;;20.10;12.63;;;;;;;;;;5068319;28;20025;-71
2021/03/17 14:36:57;;;;;;;22.58;12.32;;;;;;;;;;5068356;28;20099;-70
2021/03/17 14:39:23;;;;;;;16.67;9.98;;;;;;;;;;5068587;28;20047;-70
2021/03/17 14:41:50;;;;;;;16.75;10.18;;;;;;;;;;5068336;28;20023;-70
2021/03/17 14:44:16;;;;;;;14.15;8.93;;;;;;;;;;5057446;28;20535;-69
2021/03/17 14:46:42;;;;;;;17.08;10.02;;;;;;;;;;5055042;28;20033;-68
2021/03/17 14:49:08;;;;;;;20.27;9.95;;;;;;;;;;5055022;28;20025;-69
2021/03/17 14:51:34;;;;;;;23.58;13.65;;;;;;;;;;5054472;28;20440;-70
2021/03/17 14:54:01;;;;;;;72.43;38.35;;;;;;;;;;5054899;28;20033;-70